Time;durP1;ratioP1;P1;durP2;ratioP2;P2;SDS_P1;SDS_P2;PMS_P1;PMS_P2;Temp;Humidity;BMP_temperature;BMP_pressure;BME280_temperature;BME280_humidity;BME280_pressure;Samples;Min_cycle;Max_cycle;Signal;HPM_P1;HPM_P2
2021/04/11 12:59:12;;;;;;;3.92;1.00;;;22.30;78.70;;;;;;5153218;27;20315;-76
2021/04/11 13:01:48;;;;;;;1.75;0.60;;;23.10;73.30;;;;;;5134331;27;20028;-77
2021/04/11 13:04:34;;;;;;;1.95;1.20;;;23.30;73.10;;;;;;5093483;28;20031;-77
2021/04/11 13:07:06;;;;;;;4.53;2.08;;;23.10;74.70;;;;;;5120141;27;20021;-77
2021/04/11 13:09:47;;;;;;;4.25;1.23;;;23.40;73.70;;;;;;5132360;27;20027;-75
2021/04/11 13:12:26;;;;;;;3.00;1.40;;;23.50;73.50;;;;;;5135998;27;20023;-75
2021/04/11 13:15:12;;;;;;;2.83;1.25;;;23.70;73.30;;;;;;5111031;28;20385;-76
2021/04/11 13:17:47;;;;;;;2.15;1.10;;;25.30;69.30;;;;;;5120350;28;20020;-76
2021/04/11 13:20:19;;;;;;;6.95;3.55;;;25.80;66.20;;;;;;5131312;27;20099;-77
2021/04/11 13:23:02;;;;;;;1.65;1.30;;;25.40;66.40;;;;;;5128787;27;20150;-78
2021/04/11 13:25:39;;;;;;;6.10;1.30;;;25.00;66.80;;;;;;5109620;28;20099;-76
2021/04/11 13:28:29;;;;;;;2.47;1.20;;;25.10;67.30;;;;;;5111170;28;20038;-77
2021/04/11 13:30:58;;;;;;;3.75;1.27;;;24.00;67.20;;;;;;5109851;28;20031;-77
2021/04/11 13:33:36;;;;;;;2.58;1.10;;;22.90;70.70;;;;;;5128387;22;20041;-77
2021/04/11 13:36:04;;;;;;;2.40;0.90;;;21.80;74.20;;;;;;5088062;28;20034;-77
2021/04/11 13:38:41;;;;;;;2.83;1.30;;;20.90;76.80;;;;;;5083631;28;20032;-78
2021/04/11 13:41:18;;;;;;;3.47;1.10;;;20.20;80.00;;;;;;5101384;28;20031;-78
2021/04/11 13:43:50;;;;;;;2.33;0.82;;;19.60;81.60;;;;;;5088387;28;20024;-77
2021/04/11 13:46:31;;;;;;;2.27;0.90;;;18.80;85.30;;;;;;5088558;28;20393;-77
2021/04/11 13:49:02;;;;;;;2.45;0.98;;;18.40;89.10;;;;;;5051863;28;20031;-77
2021/04/11 13:51:38;;;;;;;5.57;0.95;;;18.20;91.80;;;;;;5086700;28;20032;-78
2021/04/11 13:54:37;;;;;;;3.45;1.25;;;18.00;92.00;;;;;;5067921;28;20070;-77
2021/04/11 13:57:11;;;;;;;1.80;0.80;;;17.90;93.20;;;;;;5072795;28;20020;-76
2021/04/11 13:59:39;;;;;;;3.60;0.90;;;17.60;94.60;;;;;;5087481;28;20494;-77
2021/04/11 14:02:25;;;;;;;4.43;1.27;;;17.30;96.70;;;;;;5087780;28;20464;-78
2021/04/11 14:05:10;;;;;;;3.03;1.33;;;17.00;98.90;;;;;;5069923;28;20024;-77
2021/04/11 14:07:38;;;;;;;1.13;0.57;;;17.20;99.90;;;;;;5070380;28;20032;-76
2021/04/11 14:10:39;;;;;;;1.85;0.75;;;17.10;99.90;;;;;;5075412;28;20103;-77
2021/04/11 14:13:26;;;;;;;1.52;0.60;;;17.00;99.90;;;;;;5074317;28;20087;-77
2021/04/11 14:16:03;;;;;;;1.80;0.85;;;16.60;99.90;;;;;;5075687;28;20035;-78
2021/04/11 14:18:46;;;;;;;1.35;0.82;;;16.80;99.90;;;;;;5075803;28;20021;-78
2021/04/11 14:21:24;;;;;;;2.20;0.70;;;16.90;99.90;;;;;;5075307;28;20017;-78
2021/04/11 14:24:20;;;;;;;2.60;0.70;;;17.00;99.90;;;;;;5076011;28;20032;-78
2021/04/11 14:26:58;;;;;;;2.55;0.80;;;16.80;99.90;;;;;;5073799;28;20081;-78
2021/04/11 14:30:16;;;;;;;2.70;0.85;;;16.70;99.90;;;;;;5074725;28;20029;-78
2021/04/11 14:33:00;;;;;;;2.58;1.10;;;16.60;99.90;;;;;;4992456;28;20499;-78
2021/04/11 14:35:54;;;;;;;2.67;0.85;;;16.70;99.90;;;;;;4992655;28;20051;-78
2021/04/11 14:38:53;;;;;;;1.83;0.70;;;16.80;99.90;;;;;;5046127;28;20484;-77
2021/04/11 14:41:25;;;;;;;1.27;0.55;;;16.80;99.90;;;;;;5073181;28;20092;-77
2021/04/11 14:43:55;;;;;;;1.20;0.60;;;17.00;99.90;;;;;;5073809;28;20365;-77
2021/04/11 14:46:30;;;;;;;1.98;0.60;;;16.70;99.90;;;;;;5073773;28;20063;-78
2021/04/11 14:49:11;;;;;;;2.38;0.70;;;16.20;99.90;;;;;;5073671;28;20124;-78
2021/04/11 14:52:04;;;;;;;2.05;0.68;;;15.90;99.90;;;;;;5051831;28;20040;-78
2021/04/11 14:54:33;;;;;;;;;;;15.60;99.90;;;;;;5053936;28;20032;-79
2021/04/11 14:57:02;;;;;;;4.03;0.70;;;15.20;99.90;;;;;;5055766;28;19912;-78
2021/04/11 14:59:34;;;;;;;1.55;0.57;;;14.90;99.90;;;;;;5044599;28;20021;-78
2021/04/11 15:02:34;;;;;;;1.65;0.68;;;14.60;99.90;;;;;;5062993;28;20117;-78
2021/04/11 15:05:29;;;;;;;1.60;0.70;;;14.40;99.90;;;;;;5062394;28;20025;-79
2021/04/11 15:08:10;;;;;;;1.63;0.50;;;13.90;99.90;;;;;;5061972;28;20492;-78
2021/04/11 15:11:01;;;;;;;1.83;0.65;;;13.70;99.90;;;;;;5043898;28;20082;-78
2021/04/11 15:14:00;;;;;;;3.15;0.70;;;13.60;99.90;;;;;;5061332;28;20025;-79
2021/04/11 15:16:45;;;;;;;2.20;0.85;;;13.50;99.90;;;;;;5035571;28;20505;-78
2021/04/11 15:19:22;;;;;;;1.83;0.80;;;13.20;99.90;;;;;;5060804;28;20393;-78
2021/04/11 15:22:02;;;;;;;2.00;0.80;;;13.00;99.90;;;;;;5079462;28;20047;-79
2021/04/11 15:24:31;;;;;;;1.40;0.80;;;12.80;99.90;;;;;;5080757;28;20089;-78
2021/04/11 15:27:19;;;;;;;2.45;0.80;;;12.60;99.90;;;;;;5071494;28;20048;-78
2021/04/11 15:29:57;;;;;;;1.33;0.75;;;12.50;99.90;;;;;;5058796;28;20040;-78
2021/04/11 15:32:32;;;;;;;2.88;0.90;;;12.40;99.90;;;;;;5059577;28;20021;-80
2021/04/11 15:35:00;;;;;;;3.50;1.00;;;12.20;99.90;;;;;;5040815;28;20032;-79
2021/04/11 15:37:44;;;;;;;1.67;1.00;;;12.10;99.90;;;;;;5041293;28;20036;-79
2021/04/11 15:40:28;;;;;;;1.80;0.93;;;11.90;99.90;;;;;;5059086;28;20397;-80
2021/04/11 15:43:13;;;;;;;3.30;1.00;;;12.50;99.90;;;;;;5060518;28;20098;-80
2021/04/11 15:46:14;;;;;;;3.00;1.45;;;11.70;99.90;;;;;;5060487;28;20021;-78
2021/04/11 15:48:54;;;;;;;1.98;1.38;;;11.70;99.90;;;;;;5059472;28;20033;-79
2021/04/11 15:51:41;;;;;;;3.20;1.70;;;11.60;99.90;;;;;;5078836;28;20062;-80
2021/04/11 15:54:37;;;;;;;6.05;2.10;;;11.60;99.90;;;;;;5081540;28;20515;-80
2021/04/11 15:57:15;;;;;;;5.35;1.92;;;11.50;99.90;;;;;;5067450;28;20416;-79
2021/04/11 16:00:19;;;;;;;5.75;2.28;;;11.50;99.90;;;;;;5084116;28;20024;-80
2021/04/11 16:03:17;;;;;;;4.90;2.13;;;11.50;99.90;;;;;;5083312;28;20091;-81
2021/04/11 16:05:46;;;;;;;7.30;2.30;;;11.60;99.90;;;;;;5079127;28;20020;-80
2021/04/11 16:08:16;;;;;;;4.15;1.95;;;11.40;99.90;;;;;;5079128;28;20025;-82
2021/04/11 16:10:43;;;;;;;5.93;2.30;;;12.20;99.90;;;;;;5082832;28;20021;-79
2021/04/11 16:13:33;;;;;;;5.18;1.70;;;11.50;99.90;;;;;;5081086;28;20393;-82
2021/04/11 16:16:58;;;;;;;1.73;1.27;;;11.30;99.90;;;;;;5079661;28;20146;-81
2021/04/11 16:20:10;;;;;;;4.10;1.60;;;11.40;99.90;;;;;;4996185;28;20038;-81
2021/04/11 16:22:50;;;;;;;3.28;1.50;;;11.30;99.90;;;;;;4998362;28;20038;-82
2021/04/11 16:25:27;;;;;;;3.20;1.25;;;11.20;99.90;;;;;;5042689;28;20036;-81
2021/04/11 16:28:16;;;;;;;3.67;1.38;;;11.20;99.90;;;;;;5058602;28;20029;-81
2021/04/11 16:30:54;;;;;;;2.75;1.10;;;11.10;99.90;;;;;;5039862;28;20064;-81
2021/04/11 16:34:08;;;;;;;4.38;1.23;;;11.20;99.90;;;;;;5058142;28;20046;-81
2021/04/11 16:36:48;;;;;;;3.67;1.60;;;11.10;99.90;;;;;;5054664;28;20045;-81
2021/04/11 16:39:23;;;;;;;1.73;1.20;;;11.40;99.90;;;;;;5059175;28;20013;-81
2021/04/11 16:42:02;;;;;;;3.60;1.20;;;11.00;99.90;;;;;;5058679;28;20025;-80
2021/04/11 16:44:34;;;;;;;2.38;1.52;;;10.90;99.90;;;;;;5061734;28;20017;-81
2021/04/11 16:47:19;;;;;;;3.25;1.17;;;11.00;99.90;;;;;;5059061;28;20028;-80
2021/04/11 16:50:16;;;;;;;0.98;0.63;;;11.00;99.90;;;;;;5044104;28;20116;-80
2021/04/11 16:53:07;;;;;;;3.45;1.27;;;10.90;99.90;;;;;;5077127;28;20108;-80
2021/04/11 16:55:46;;;;;;;2.97;0.98;;;10.70;99.90;;;;;;5077522;28;20031;-81
2021/04/11 16:58:12;;;;;;;2.75;1.10;;;10.70;99.90;;;;;;5077739;28;20025;-80
2021/04/11 17:00:40;;;;;;;4.50;0.90;;;10.90;99.90;;;;;;5078203;28;20084;-80
2021/04/11 17:03:17;;;;;;;2.08;1.20;;;10.90;99.90;;;;;;5077122;28;20028;-82
2021/04/11 17:05:57;;;;;;;2.65;1.30;;;11.80;99.90;;;;;;5077244;28;20021;-81
2021/04/11 17:08:37;;;;;;;3.15;1.05;;;10.60;99.90;;;;;;5076527;28;20021;-81
2021/04/11 17:11:08;;;;;;;3.25;1.02;;;10.50;99.90;;;;;;5059139;28;20024;-81
2021/04/11 17:13:43;;;;;;;2.80;1.23;;;10.50;99.90;;;;;;5059197;28;20024;-81
2021/04/11 17:16:38;;;;;;;5.20;2.42;;;10.90;99.90;;;;;;5077542;28;20039;-81
2021/04/11 17:19:30;;;;;;;2.17;1.40;;;10.50;99.90;;;;;;5076848;28;20142;-80
2021/04/11 17:22:14;;;;;;;5.53;3.60;;;10.70;99.90;;;;;;5057302;28;20017;-80
2021/04/11 17:25:09;;;;;;;8.23;2.35;;;10.70;99.90;;;;;;5043928;28;20055;-79
2021/04/11 17:27:50;;;;;;;4.25;3.30;;;10.50;99.90;;;;;;5044109;28;20029;-79
2021/04/11 17:30:25;;;;;;;4.43;4.03;;;11.00;99.90;;;;;;5042103;28;20032;-79
2021/04/11 17:32:53;;;;;;;5.82;4.60;;;9.90;99.90;;;;;;5058363;28;20055;-79
2021/04/11 17:35:19;;;;;;;5.55;4.72;;;;;;;;;;5057661;28;20028;-79
2021/04/11 17:37:55;;;;;;;5.93;4.75;;;;;;;;;;5056996;28;20404;-79
2021/04/11 17:40:22;;;;;;;7.28;5.90;;;;;;;;;;5056499;28;20036;-79
2021/04/11 17:42:55;;;;;;;9.90;7.22;;;;;;;;;;5055907;28;20040;-79
2021/04/11 17:45:26;;;;;;;10.98;7.28;;;;;;;;;;5058998;28;20029;-79
2021/04/11 17:48:10;;;;;;;11.52;8.55;;;;;;;;;;5059486;28;20044;-79
2021/04/11 17:50:50;;;;;;;10.52;8.55;;;;;;;;;;5070416;28;20032;-78
2021/04/11 17:53:22;;;;;;;10.73;8.57;;;;;;;;;;5079515;28;20024;-80
2021/04/11 17:55:59;;;;;;;10.32;8.40;;;;;;;;;;5080423;28;20023;-79
2021/04/11 17:58:25;;;;;;;12.73;8.90;;;;;;;;;;5064451;28;20326;-79
2021/04/11 18:01:03;;;;;;;12.63;10.48;;;;;;;;;;5083996;28;20116;-79
2021/04/11 18:03:29;;;;;;;11.02;8.85;;;;;;;;;;5083834;28;20035;-80
2021/04/11 18:05:55;;;;;;;12.85;10.00;;;;;;;;;;5082864;28;20064;-78
2021/04/11 18:08:23;;;;;;;10.23;8.38;;;;;;;;;;5074667;28;20108;-78
2021/04/11 18:10:52;;;;;;;12.82;9.63;;;;;;;;;;5082171;28;20102;-78
2021/04/11 18:13:18;;;;;;;12.48;9.82;;;;;;;;;;5081230;28;20024;-78
2021/04/11 18:15:50;;;;;;;11.90;9.88;;;;;;;;;;5084498;28;20036;-77
2021/04/11 18:18:32;;;;;;;12.40;10.20;;;;;;;;;;5085820;28;20056;-78
2021/04/11 18:21:03;;;;;;;11.82;10.30;;;;;;;;;;5087556;28;20024;-77
2021/04/11 18:23:34;;;;;;;10.73;9.23;;;;;;;;;;5077627;28;20070;-77
2021/04/11 18:26:05;;;;;;;13.40;10.18;;;;;;;;;;5080740;28;20024;-78
2021/04/11 18:28:37;;;;;;;11.35;9.48;;;;;;;;;;5072821;28;20031;-80
2021/04/11 18:31:22;;;;;;;11.95;9.18;;;;;;;;;;5054909;28;20025;-78
2021/04/11 18:34:06;;;;;;;9.00;7.78;;;;;;;;;;5072395;28;20086;-79
2021/04/11 18:36:57;;;;;;;10.02;8.70;;;;;;;;;;5072458;28;20043;-78
2021/04/11 18:39:23;;;;;;;8.48;7.57;;;;;;;;;;5073506;28;20039;-77
2021/04/11 18:42:04;;;;;;;7.68;6.88;;;;;;;;;;5057378;28;20021;-78
2021/04/11 18:44:40;;;;;;;9.52;6.95;;;;;;;;;;5078967;28;20063;-77
2021/04/11 18:47:17;;;;;;;10.65;8.40;;;;;;;;;;5083312;28;20044;-78
2021/04/11 18:49:49;;;;;;;8.73;7.80;;;;;;;;;;5080928;28;20029;-77
2021/04/11 18:52:34;;;;;;;8.23;7.32;;;;;;;;;;5077180;28;20730;-78
2021/04/11 18:55:23;;;;;;;8.98;6.68;;;;;;;;;;5055368;28;20029;-78
